Time;durP1;ratioP1;P1;durP2;ratioP2;P2;SDS_P1;SDS_P2;PMS_P1;PMS_P2;Temp;Humidity;BMP_temperature;BMP_pressure;BME280_temperature;BME280_humidity;BME280_pressure;Samples;Min_cycle;Max_cycle;Signal;HPM_P1;HPM_P2
2022/05/17 00:00:59;;;;;;;22.67;7.55;;;;;;;;;;5039429;28;20384;-75
2022/05/17 00:03:25;;;;;;;26.00;7.68;;;;;;;;;;5041146;28;20395;-75
2022/05/17 00:05:51;;;;;;;23.67;7.93;;;;;;;;;;5039256;28;20032;-75
2022/05/17 00:08:17;;;;;;;26.50;8.88;;;;;;;;;;5043147;28;20036;-75
2022/05/17 00:10:45;;;;;;;23.75;6.80;;;;;;;;;;5039701;28;20629;-75
2022/05/17 00:13:11;;;;;;;35.95;7.82;;;;;;;;;;5038448;28;20037;-75
2022/05/17 00:15:39;;;;;;;25.25;7.70;;;;;;;;;;5039830;28;20033;-75
2022/05/17 00:18:05;;;;;;;28.25;10.25;;;;;;;;;;5043386;28;20029;-75
2022/05/17 00:20:32;;;;;;;30.52;8.10;;;;;;;;;;5045685;28;20033;-75
2022/05/17 00:22:58;;;;;;;23.13;7.63;;;;;;;;;;5044196;28;20037;-75
2022/05/17 00:25:25;;;;;;;27.88;8.05;;;;;;;;;;5045891;28;20049;-75
2022/05/17 00:27:51;;;;;;;20.73;7.88;;;;;;;;;;5042306;28;20469;-76
2022/05/17 00:30:17;;;;;;;24.45;7.55;;;;;;;;;;5044736;28;20036;-75
2022/05/17 00:32:44;;;;;;;29.20;8.57;;;;;;;;;;5027867;28;20029;-75
2022/05/17 00:35:10;;;;;;;23.63;7.80;;;;;;;;;;5044919;28;20508;-75
2022/05/17 00:37:36;;;;;;;34.45;8.18;;;;;;;;;;5041867;28;20380;-75
2022/05/17 00:40:04;;;;;;;26.92;8.10;;;;;;;;;;5044626;28;20036;-75
2022/05/17 00:42:30;;;;;;;28.45;7.35;;;;;;;;;;5044869;28;20123;-75
2022/05/17 00:44:56;;;;;;;28.20;7.43;;;;;;;;;;5026577;28;20029;-76
2022/05/17 00:47:41;;;;;;;29.95;7.95;;;;;;;;;;5043896;28;20060;-75
2022/05/17 00:50:19;;;;;;;28.23;8.00;;;;;;;;;;5041142;28;20036;-74
2022/05/17 00:52:51;;;;;;;23.23;6.65;;;;;;;;;;5042387;28;20040;-74
2022/05/17 00:55:23;;;;;;;26.13;7.25;;;;;;;;;;5043391;28;20366;-74
2022/05/17 00:57:58;;;;;;;23.77;6.45;;;;;;;;;;5042924;28;20065;-74
2022/05/17 01:00:25;;;;;;;20.92;6.75;;;;;;;;;;5045511;28;20099;-74
2022/05/17 01:02:58;;;;;;;21.30;6.53;;;;;;;;;;5041949;28;20028;-74
2022/05/17 01:05:25;;;;;;;17.50;6.70;;;;;;;;;;5043532;28;20542;-74
2022/05/17 01:07:53;;;;;;;27.35;6.10;;;;;;;;;;5025649;28;20032;-74
2022/05/17 01:10:19;;;;;;;28.42;6.85;;;;;;;;;;5041734;28;20028;-74
2022/05/17 01:14:57;;;;;;;24.42;7.25;;;;;;;;;;5044374;28;20043;-74
2022/05/17 01:15:31;;;;;;;18.30;6.05;;;;;;;;;;5042114;28;20030;-74
2022/05/17 01:17:58;;;;;;;18.38;7.05;;;;;;;;;;5042560;28;20082;-74
2022/05/17 01:20:24;;;;;;;23.13;6.32;;;;;;;;;;5044274;28;20041;-75
2022/05/17 01:22:50;;;;;;;20.95;6.32;;;;;;;;;;5027343;28;20120;-74
2022/05/17 01:25:16;;;;;;;23.90;5.85;;;;;;;;;;5046145;28;20053;-74
2022/05/17 01:27:51;;;;;;;17.83;6.18;;;;;;;;;;5043734;28;20362;-75
2022/05/17 01:30:21;;;;;;;23.35;6.97;;;;;;;;;;5042787;28;20033;-74
2022/05/17 01:32:48;;;;;;;23.02;6.80;;;;;;;;;;5042634;28;20485;-74
2022/05/17 01:35:14;;;;;;;17.83;5.70;;;;;;;;;;5044664;28;20043;-75
2022/05/17 01:37:40;;;;;;;23.73;5.93;;;;;;;;;;5041061;28;20037;-74
2022/05/17 01:40:07;;;;;;;19.33;6.15;;;;;;;;;;5042352;28;20069;-74
2022/05/17 01:42:33;;;;;;;23.25;6.05;;;;;;;;;;5042041;28;20045;-74
2022/05/17 01:45:00;;;;;;;21.75;6.45;;;;;;;;;;5045795;28;20104;-75
2022/05/17 01:47:26;;;;;;;24.27;6.30;;;;;;;;;;5040868;28;20029;-75
2022/05/17 01:49:52;;;;;;;23.17;6.40;;;;;;;;;;5042230;28;20036;-75
2022/05/17 01:52:18;;;;;;;23.52;6.20;;;;;;;;;;5041443;28;20056;-75
2022/05/17 01:54:44;;;;;;;24.05;6.00;;;;;;;;;;5039737;28;20411;-74
2022/05/17 01:57:10;;;;;;;20.00;5.82;;;;;;;;;;5042848;28;20075;-74
2022/05/17 01:59:36;;;;;;;19.35;6.07;;;;;;;;;;5042969;28;20086;-75
2022/05/17 02:02:03;;;;;;;16.58;5.18;;;;;;;;;;5026704;28;20033;-75
2022/05/17 02:04:29;;;;;;;22.48;5.50;;;;;;;;;;5045030;28;20029;-75
2022/05/17 02:06:55;;;;;;;15.30;5.30;;;;;;;;;;5043794;28;20044;-75
2022/05/17 02:09:21;;;;;;;23.80;5.97;;;;;;;;;;5039843;28;20048;-75
2022/05/17 02:11:47;;;;;;;16.10;5.57;;;;;;;;;;5042584;28;20052;-75
2022/05/17 02:14:14;;;;;;;20.33;6.00;;;;;;;;;;5042967;28;20381;-75
2022/05/17 02:16:40;;;;;;;23.48;6.88;;;;;;;;;;5044528;28;20471;-75
2022/05/17 02:19:09;;;;;;;17.67;5.75;;;;;;;;;;5042997;28;20060;-75
2022/05/17 02:21:36;;;;;;;18.60;6.00;;;;;;;;;;5041112;28;20045;-75
2022/05/17 02:24:03;;;;;;;19.77;7.28;;;;;;;;;;5041398;28;20021;-74
2022/05/17 02:26:29;;;;;;;19.42;5.93;;;;;;;;;;5041202;28;20040;-74
2022/05/17 02:28:55;;;;;;;24.60;6.82;;;;;;;;;;5041317;28;20136;-74
2022/05/17 02:31:21;;;;;;;17.95;6.82;;;;;;;;;;5043288;28;20033;-74
2022/05/17 02:33:47;;;;;;;25.60;6.68;;;;;;;;;;5039386;28;20033;-74
2022/05/17 02:36:14;;;;;;;22.20;6.82;;;;;;;;;;5043141;28;20038;-74
2022/05/17 02:38:40;;;;;;;27.08;7.53;;;;;;;;;;5041874;28;20040;-74
2022/05/17 02:41:06;;;;;;;24.38;6.72;;;;;;;;;;5041214;28;20033;-74
2022/05/17 02:43:33;;;;;;;21.75;7.72;;;;;;;;;;5039600;28;20024;-75
2022/05/17 02:45:59;;;;;;;27.38;6.53;;;;;;;;;;5040298;28;20032;-74
2022/05/17 02:48:25;;;;;;;17.83;7.10;;;;;;;;;;5042264;28;20145;-74
2022/05/17 02:50:51;;;;;;;25.42;6.82;;;;;;;;;;5042104;28;20425;-74
2022/05/17 02:53:18;;;;;;;18.63;7.10;;;;;;;;;;5042453;28;20044;-75
2022/05/17 02:55:44;;;;;;;25.05;7.22;;;;;;;;;;5043930;28;20033;-75
2022/05/17 02:58:10;;;;;;;21.65;7.32;;;;;;;;;;5043230;28;20040;-74
2022/05/17 03:00:36;;;;;;;22.67;7.60;;;;;;;;;;5037887;28;20041;-75
2022/05/17 03:03:02;;;;;;;23.40;7.35;;;;;;;;;;5043483;28;20033;-75
2022/05/17 03:05:28;;;;;;;21.90;7.18;;;;;;;;;;5025869;28;20040;-75
2022/05/17 03:07:54;;;;;;;22.65;7.35;;;;;;;;;;5041018;28;20031;-74
2022/05/17 03:10:21;;;;;;;28.10;7.60;;;;;;;;;;5025339;28;20138;-74
2022/05/17 03:12:47;;;;;;;21.50;7.82;;;;;;;;;;5043601;28;20029;-75
2022/05/17 03:15:17;;;;;;;21.10;6.60;;;;;;;;;;5039290;28;20021;-74
2022/05/17 03:17:43;;;;;;;23.38;7.15;;;;;;;;;;5040982;28;20099;-75
2022/05/17 03:20:10;;;;;;;22.42;6.68;;;;;;;;;;5040825;28;20087;-76
2022/05/17 03:22:36;;;;;;;19.83;7.05;;;;;;;;;;5042171;28;20052;-75
2022/05/17 03:25:03;;;;;;;28.95;7.18;;;;;;;;;;5041856;28;20087;-75
2022/05/17 03:27:29;;;;;;;20.33;7.32;;;;;;;;;;5044354;28;20029;-75
2022/05/17 03:29:55;;;;;;;21.92;7.25;;;;;;;;;;5024438;28;23410;-74
2022/05/17 03:32:21;;;;;;;22.55;7.15;;;;;;;;;;5041452;28;20469;-75
2022/05/17 03:34:47;;;;;;;19.30;7.35;;;;;;;;;;5041817;28;20416;-74
2022/05/17 03:37:14;;;;;;;17.42;6.65;;;;;;;;;;5043514;28;20115;-74
2022/05/17 03:39:40;;;;;;;28.67;7.43;;;;;;;;;;5039320;28;20076;-74
2022/05/17 03:42:09;;;;;;;16.45;6.95;;;;;;;;;;5037562;28;20049;-75
2022/05/17 03:44:35;;;;;;;24.73;7.35;;;;;;;;;;5038923;28;20029;-75
2022/05/17 03:47:02;;;;;;;23.20;6.85;;;;;;;;;;5043370;28;20128;-75
2022/05/17 03:49:28;;;;;;;21.70;6.97;;;;;;;;;;5039748;28;20083;-75
2022/05/17 03:51:54;;;;;;;18.38;7.22;;;;;;;;;;5042137;28;20032;-75
2022/05/17 03:54:22;;;;;;;17.10;7.50;;;;;;;;;;5043256;28;20132;-75
2022/05/17 03:56:48;;;;;;;19.23;7.72;;;;;;;;;;5035112;28;20120;-75
2022/05/17 03:59:14;;;;;;;18.60;6.55;;;;;;;;;;5045281;28;20029;-75
2022/05/17 04:01:40;;;;;;;16.58;7.28;;;;;;;;;;5039032;28;20384;-75
2022/05/17 04:04:06;;;;;;;19.35;6.90;;;;;;;;;;5045846;28;20033;-75
2022/05/17 04:06:32;;;;;;;17.13;6.78;;;;;;;;;;5043647;28;20115;-75
2022/05/17 04:08:58;;;;;;;18.88;7.25;;;;;;;;;;5043581;28;20040;-75
2022/05/17 04:11:24;;;;;;;17.52;7.07;;;;;;;;;;5026419;28;20686;-76
2022/05/17 04:13:51;;;;;;;18.70;7.22;;;;;;;;;;5040383;28;20473;-75
2022/05/17 04:16:17;;;;;;;19.70;7.47;;;;;;;;;;5046930;28;20492;-75
2022/05/17 04:18:43;;;;;;;19.13;7.22;;;;;;;;;;5046935;28;20069;-75
2022/05/17 04:21:10;;;;;;;24.95;7.57;;;;;;;;;;5044252;28;21750;-74
2022/05/17 04:23:37;;;;;;;19.30;7.00;;;;;;;;;;5042810;28;20451;-75
2022/05/17 04:26:03;;;;;;;18.20;7.85;;;;;;;;;;5041016;28;20033;-75
2022/05/17 04:28:29;;;;;;;21.65;7.40;;;;;;;;;;5047053;28;20044;-75
2022/05/17 04:30:56;;;;;;;17.33;6.78;;;;;;;;;;5042991;28;20040;-74
2022/05/17 04:33:22;;;;;;;14.32;5.88;;;;;;;;;;5045352;28;20041;-75
2022/05/17 04:35:48;;;;;;;20.70;6.40;;;;;;;;;;5044755;28;20866;-75
2022/05/17 04:38:14;;;;;;;16.10;6.30;;;;;;;;;;5044017;28;20025;-74
2022/05/17 04:40:41;;;;;;;20.17;6.40;;;;;;;;;;5046422;28;20029;-75
2022/05/17 04:43:08;;;;;;;19.08;6.72;;;;;;;;;;5040992;28;20059;-74
2022/05/17 04:45:34;;;;;;;23.20;8.52;;;;;;;;;;5044420;28;20083;-74
2022/05/17 04:48:00;;;;;;;25.02;7.53;;;;;;;;;;5026542;28;20176;-75
2022/05/17 04:50:27;;;;;;;15.45;6.90;;;;;;;;;;5046361;28;20552;-75
2022/05/17 04:52:53;;;;;;;19.92;6.75;;;;;;;;;;5044341;28;20367;-74
2022/05/17 04:55:20;;;;;;;20.73;6.90;;;;;;;;;;5026266;28;20064;-74
2022/05/17 04:57:46;;;;;;;27.85;7.97;;;;;;;;;;5045488;28;20029;-74
2022/05/17 05:00:16;;;;;;;16.70;6.68;;;;;;;;;;5040603;28;20507;-74
2022/05/17 05:02:42;;;;;;;19.25;6.07;;;;;;;;;;5044488;28;20033;-74
2022/05/17 05:05:09;;;;;;;18.20;6.50;;;;;;;;;;5044932;28;20037;-75
2022/05/17 05:07:35;;;;;;;23.52;7.32;;;;;;;;;;5043365;28;20029;-75
2022/05/17 05:10:03;;;;;;;22.80;6.40;;;;;;;;;;5043571;28;20102;-76
2022/05/17 05:12:30;;;;;;;24.90;6.70;;;;;;;;;;5044466;28;20075;-73
2022/05/17 05:14:57;;;;;;;18.33;6.03;;;;;;;;;;5042378;28;20029;-75
2022/05/17 05:17:23;;;;;;;19.17;5.72;;;;;;;;;;5023918;28;20029;-75
2022/05/17 05:19:49;;;;;;;18.42;5.70;;;;;;;;;;5045041;28;20554;-73
2022/05/17 05:22:15;;;;;;;46.95;22.17;;;;;;;;;;5036716;28;20191;-72
2022/05/17 05:24:41;;;;;;;29.60;12.27;;;;;;;;;;5043352;28;20389;-72
2022/05/17 05:27:07;;;;;;;20.13;7.95;;;;;;;;;;5043770;28;20029;-74
2022/05/17 05:29:34;;;;;;;22.67;5.88;;;;;;;;;;5020513;28;20029;-75
2022/05/17 05:32:00;;;;;;;19.98;5.40;;;;;;;;;;5036126;28;20052;-76
2022/05/17 05:34:27;;;;;;;16.73;4.47;;;;;;;;;;5039876;28;20086;-74
2022/05/17 05:36:54;;;;;;;26.38;5.80;;;;;;;;;;5044257;28;20107;-76
2022/05/17 05:39:21;;;;;;;23.73;5.07;;;;;;;;;;5044572;28;20128;-75
2022/05/17 05:41:48;;;;;;;15.52;4.50;;;;;;;;;;5038548;28;20068;-76
2022/05/17 05:44:14;;;;;;;21.40;5.85;;;;;;;;;;5025646;28;20029;-74
2022/05/17 05:46:40;;;;;;;14.57;4.90;;;;;;;;;;5035416;28;20372;-74
2022/05/17 05:49:06;;;;;;;18.63;4.60;;;;;;;;;;5040668;28;20348;-73
2022/05/17 05:51:32;;;;;;;22.27;7.85;;;;;;;;;;5034639;28;20103;-73
2022/05/17 05:53:58;;;;;;;13.63;4.97;;;;;;;;;;5038210;28;20548;-73
2022/05/17 05:56:24;;;;;;;22.20;5.40;;;;;;;;;;5044777;28;20068;-73
2022/05/17 05:58:51;;;;;;;22.58;4.60;;;;;;;;;;5041220;28;20041;-73
2022/05/17 06:01:17;;;;;;;21.20;5.20;;;;;;;;;;5046459;28;20029;-73
2022/05/17 06:03:43;;;;;;;21.45;4.82;;;;;;;;;;5031647;28;20037;-74
2022/05/17 06:06:09;;;;;;;17.48;4.88;;;;;;;;;;5044296;28;20065;-74
2022/05/17 06:08:36;;;;;;;19.25;5.18;;;;;;;;;;5046608;28;20405;-73
2022/05/17 06:11:02;;;;;;;20.60;4.90;;;;;;;;;;5050213;28;20021;-73
2022/05/17 06:13:28;;;;;;;25.15;5.95;;;;;;;;;;5052176;28;20047;-74
2022/05/17 06:15:54;;;;;;;19.10;4.82;;;;;;;;;;5040314;28;20079;-75
2022/05/17 06:18:21;;;;;;;20.20;5.05;;;;;;;;;;5052066;28;20404;-75
2022/05/17 06:20:51;;;;;;;16.13;4.30;;;;;;;;;;5046615;28;20421;-75
2022/05/17 06:23:17;;;;;;;18.23;5.18;;;;;;;;;;5039598;28;20067;-74
2022/05/17 06:25:43;;;;;;;13.82;4.15;;;;;;;;;;5039417;28;20029;-75
2022/05/17 06:28:10;;;;;;;19.55;4.50;;;;;;;;;;5039088;28;20040;-75
2022/05/17 06:30:36;;;;;;;19.15;4.15;;;;;;;;;;5022294;28;20041;-75
2022/05/17 06:33:02;;;;;;;21.95;5.18;;;;;;;;;;5048451;28;20036;-75
2022/05/17 06:35:28;;;;;;;43.05;21.92;;;;;;;;;;5039826;28;20028;-74
2022/05/17 06:37:55;;;;;;;17.38;4.22;;;;;;;;;;5042358;28;20033;-73
2022/05/17 06:40:21;;;;;;;19.35;4.57;;;;;;;;;;5040756;28;20103;-71
2022/05/17 06:42:47;;;;;;;14.93;4.10;;;;;;;;;;5001371;28;20045;-73
2022/05/17 06:45:14;;;;;;;16.92;4.43;;;;;;;;;;5043933;28;20029;-74
2022/05/17 06:47:40;;;;;;;15.70;4.25;;;;;;;;;;5039842;28;20044;-73
2022/05/17 06:50:07;;;;;;;18.38;4.72;;;;;;;;;;5039389;28;20662;-74
2022/05/17 06:52:33;;;;;;;21.75;4.50;;;;;;;;;;5039843;28;20034;-74
2022/05/17 06:55:00;;;;;;;15.10;4.55;;;;;;;;;;5023754;28;20033;-74
2022/05/17 06:57:26;;;;;;;14.32;4.47;;;;;;;;;;5040163;28;20123;-74
2022/05/17 06:59:52;;;;;;;19.15;5.32;;;;;;;;;;5021904;28;20045;-74
2022/05/17 07:02:18;;;;;;;14.90;4.05;;;;;;;;;;5038667;28;20032;-74
2022/05/17 07:04:44;;;;;;;15.75;4.13;;;;;;;;;;5043707;28;20037;-75
2022/05/17 07:07:10;;;;;;;18.55;3.95;;;;;;;;;;5042146;28;20029;-75
2022/05/17 07:09:37;;;;;;;14.45;4.50;;;;;;;;;;5042042;28;20366;-74
2022/05/17 07:14:49;;;;;;;13.52;3.40;;;;;;;;;;5039291;28;21495;-75
2022/05/17 07:17:17;;;;;;;31.67;14.77;;;;;;;;;;5038854;28;20041;-75
2022/05/17 07:19:43;;;;;;;25.20;11.48;;;;;;;;;;5036237;28;20488;-75
2022/05/17 07:22:10;;;;;;;12.80;3.63;;;;;;;;;;5039597;28;20060;-78
2022/05/17 07:24:36;;;;;;;18.70;3.75;;;;;;;;;;5040971;28;20041;-76
2022/05/17 07:27:03;;;;;;;17.02;4.30;;;;;;;;;;5041861;28;20457;-76
2022/05/17 07:29:29;;;;;;;13.68;3.55;;;;;;;;;;5047131;28;20045;-76
2022/05/17 07:31:55;;;;;;;15.77;3.63;;;;;;;;;;5042151;28;20025;-76
2022/05/17 07:34:21;;;;;;;16.50;4.50;;;;;;;;;;5045718;28;20866;-76
2022/05/17 07:36:48;;;;;;;13.40;3.83;;;;;;;;;;5046325;28;20053;-76
2022/05/17 07:39:14;;;;;;;15.20;3.47;;;;;;;;;;5043314;28;20048;-76
2022/05/17 07:41:43;;;;;;;17.65;4.00;;;;;;;;;;5046460;28;20430;-76
2022/05/17 07:44:09;;;;;;;13.07;3.80;;;;;;;;;;5044385;28;20040;-76
2022/05/17 07:46:35;;;;;;;14.75;3.80;;;;;;;;;;5028859;28;20044;-75
2022/05/17 07:49:02;;;;;;;14.77;3.97;;;;;;;;;;5041215;28;20044;-75
2022/05/17 07:51:28;;;;;;;12.60;3.58;;;;;;;;;;5042831;28;20510;-75
2022/05/17 07:53:55;;;;;;;9.65;2.83;;;;;;;;;;5034851;28;20064;-75
2022/05/17 07:56:21;;;;;;;15.60;3.72;;;;;;;;;;5049587;28;20017;-75
2022/05/17 07:58:47;;;;;;;14.18;3.40;;;;;;;;;;5054899;28;20047;-75
2022/05/17 08:01:15;;;;;;;11.43;2.97;;;;;;;;;;5052744;28;20033;-75
2022/05/17 08:03:42;;;;;;;11.05;2.72;;;;;;;;;;5054424;28;20419;-75
2022/05/17 08:06:08;;;;;;;9.05;2.53;;;;;;;;;;5034845;28;20389;-75
2022/05/17 08:08:34;;;;;;;11.60;3.85;;;;;;;;;;5052646;28;20546;-75
2022/05/17 08:11:01;;;;;;;10.98;2.90;;;;;;;;;;5044453;28;20477;-75
2022/05/17 08:13:27;;;;;;;9.05;2.67;;;;;;;;;;5054074;28;20027;-75
2022/05/17 08:15:54;;;;;;;12.35;3.40;;;;;;;;;;5053584;28;20032;-75
2022/05/17 08:18:20;;;;;;;9.82;3.60;;;;;;;;;;5036758;28;20041;-74
2022/05/17 08:20:47;;;;;;;14.07;3.40;;;;;;;;;;5052831;28;20090;-75
2022/05/17 08:23:14;;;;;;;11.50;2.83;;;;;;;;;;5047794;28;20035;-75
2022/05/17 08:28:25;;;;;;;10.70;3.15;;;;;;;;;;5053079;28;20534;-75
2022/05/17 08:30:51;;;;;;;12.15;3.35;;;;;;;;;;5050219;28;20033;-75
2022/05/17 08:33:20;;;;;;;14.73;2.65;;;;;;;;;;5040807;28;20104;-74
2022/05/17 08:35:49;;;;;;;11.95;3.17;;;;;;;;;;5033683;28;20052;-75
2022/05/17 08:38:16;;;;;;;13.50;3.95;;;;;;;;;;5049862;28;20032;-75
2022/05/17 08:41:00;;;;;;;11.50;3.40;;;;;;;;;;5038350;28;20052;-74
2022/05/17 08:43:45;;;;;;;9.23;3.00;;;;;;;;;;5043787;28;20036;-72
2022/05/17 08:46:30;;;;;;;13.55;3.35;;;;;;;;;;5033598;28;20373;-73
2022/05/17 08:49:12;;;;;;;11.60;2.95;;;;;;;;;;5046315;28;20488;-74
2022/05/17 08:51:41;;;;;;;11.20;3.10;;;;;;;;;;5033876;28;20041;-74
2022/05/17 08:54:09;;;;;;;9.27;2.83;;;;;;;;;;5048405;28;20032;-74
2022/05/17 08:56:37;;;;;;;9.27;2.78;;;;;;;;;;5033911;28;20510;-74
2022/05/17 08:59:05;;;;;;;11.48;3.40;;;;;;;;;;5040387;28;20034;-72
2022/05/17 09:01:54;;;;;;;16.10;2.97;;;;;;;;;;5032492;28;20044;-72
2022/05/17 09:04:25;;;;;;;11.68;3.60;;;;;;;;;;5031735;28;20890;-73
2022/05/17 09:07:05;;;;;;;12.73;2.95;;;;;;;;;;5038110;28;20025;-76
2022/05/17 09:09:34;;;;;;;11.45;3.08;;;;;;;;;;5047052;28;20423;-75
2022/05/17 09:12:08;;;;;;;11.88;2.58;;;;;;;;;;5052714;28;20028;-75
2022/05/17 09:14:37;;;;;;;9.88;2.45;;;;;;;;;;5038005;28;20106;-73
2022/05/17 09:17:14;;;;;;;10.00;2.35;;;;;;;;;;5041476;28;20028;-75
2022/05/17 09:19:40;;;;;;;11.77;2.50;;;;;;;;;;5044440;28;20037;-75
2022/05/17 09:22:06;;;;;;;8.32;2.67;;;;;;;;;;5052226;28;20044;-75
2022/05/17 09:24:45;;;;;;;8.52;2.20;;;;;;;;;;5048094;28;20108;-74
2022/05/17 09:27:22;;;;;;;7.50;2.10;;;;;;;;;;5038373;28;20067;-75
2022/05/17 09:29:49;;;;;;;12.13;2.72;;;;;;;;;;5052874;28;20044;-75
2022/05/17 09:32:26;;;;;;;13.35;2.80;;;;;;;;;;5043171;28;20034;-74
2022/05/17 09:34:58;;;;;;;10.18;2.42;;;;;;;;;;5032777;28;20029;-75
2022/05/17 09:37:25;;;;;;;10.30;2.60;;;;;;;;;;5048100;28;20435;-75
2022/05/17 09:39:52;;;;;;;6.80;1.83;;;;;;;;;;5052919;28;20469;-74
2022/05/17 09:42:21;;;;;;;8.27;2.20;;;;;;;;;;5047742;28;20104;-74
2022/05/17 09:44:52;;;;;;;11.48;2.45;;;;;;;;;;5050968;28;20033;-74
2022/05/17 09:47:27;;;;;;;13.90;3.13;;;;;;;;;;5040330;28;20031;-74
2022/05/17 09:52:44;;;;;;;11.63;2.97;;;;;;;;;;5050805;28;20563;-74
2022/05/17 09:55:25;;;;;;;8.85;2.08;;;;;;;;;;5051380;28;20037;-74
2022/05/17 09:57:52;;;;;;;11.82;2.70;;;;;;;;;;5045013;28;20029;-74
2022/05/17 10:00:23;;;;;;;10.98;2.20;;;;;;;;;;5032258;28;20034;-74
2022/05/17 10:02:57;;;;;;;7.75;2.17;;;;;;;;;;5046932;28;20037;-75
2022/05/17 10:05:24;;;;;;;8.27;2.28;;;;;;;;;;5044728;28;20065;-75
2022/05/17 10:07:58;;;;;;;8.43;2.00;;;;;;;;;;5051439;28;20033;-75
2022/05/17 10:10:27;;;;;;;6.45;1.98;;;;;;;;;;5032253;28;20033;-75
2022/05/17 10:12:56;;;;;;;8.85;2.15;;;;;;;;;;5051504;28;20032;-75
2022/05/17 10:15:22;;;;;;;6.75;1.83;;;;;;;;;;5045983;28;20044;-75
2022/05/17 10:17:55;;;;;;;7.60;1.77;;;;;;;;;;5039942;28;20040;-75
2022/05/17 10:20:23;;;;;;;11.48;2.35;;;;;;;;;;5049715;28;20041;-75
2022/05/17 10:22:49;;;;;;;11.13;2.60;;;;;;;;;;5048656;28;20045;-75
2022/05/17 10:25:32;;;;;;;6.82;2.13;;;;;;;;;;5051246;28;20036;-75
2022/05/17 10:28:04;;;;;;;7.97;2.22;;;;;;;;;;5050345;28;20109;-75
2022/05/17 10:30:42;;;;;;;6.00;1.98;;;;;;;;;;5047374;28;20033;-75
2022/05/17 10:33:13;;;;;;;6.25;1.80;;;;;;;;;;5050104;28;20452;-75
2022/05/17 10:35:43;;;;;;;7.80;1.63;;;;;;;;;;5048133;28;20385;-75
2022/05/17 10:38:10;;;;;;;16.45;2.80;;;;;;;;;;5051353;28;20043;-77
2022/05/17 10:40:43;;;;;;;25.50;3.83;;;;;;;;;;5045764;28;20037;-75
2022/05/17 10:43:09;;;;;;;8.32;2.13;;;;;;;;;;5049849;28;20032;-76
2022/05/17 10:45:36;;;;;;;10.65;2.08;;;;;;;;;;5043276;28;20022;-74
2022/05/17 10:48:25;;;;;;;6.60;1.75;;;;;;;;;;5045746;28;20124;-75
2022/05/17 10:50:54;;;;;;;5.80;1.80;;;;;;;;;;5045871;28;20028;-75
2022/05/17 10:53:25;;;;;;;6.47;1.90;;;;;;;;;;5047737;28;20029;-74
2022/05/17 10:56:01;;;;;;;6.88;1.83;;;;;;;;;;5027345;28;20021;-74
2022/05/17 10:58:48;;;;;;;7.05;1.75;;;;;;;;;;5022808;28;20389;-75
2022/05/17 11:01:17;;;;;;;6.65;2.03;;;;;;;;;;5040148;28;20438;-74
2022/05/17 11:03:51;;;;;;;8.95;2.17;;;;;;;;;;5049280;28;20104;-74
2022/05/17 11:06:35;;;;;;;7.35;1.60;;;;;;;;;;5034207;28;20052;-74
2022/05/17 11:09:20;;;;;;;5.75;1.55;;;;;;;;;;5041867;28;20029;-74
2022/05/17 11:11:52;;;;;;;8.32;2.63;;;;;;;;;;5047155;28;20145;-73
2022/05/17 11:14:28;;;;;;;7.75;1.98;;;;;;;;;;5041972;28;20492;-75
2022/05/17 11:17:04;;;;;;;7.53;1.60;;;;;;;;;;5045492;28;20087;-75
2022/05/17 11:19:42;;;;;;;7.57;1.90;;;;;;;;;;5031338;28;20561;-75
2022/05/17 11:22:18;;;;;;;7.68;3.95;;;;;;;;;;5030162;28;20541;-74
2022/05/17 11:24:47;;;;;;;10.20;4.65;;;;;;;;;;5028766;28;20402;-75
2022/05/17 11:27:14;;;;;;;8.32;1.67;;;;;;;;;;5038131;28;20522;-74
2022/05/17 11:29:40;;;;;;;6.07;1.67;;;;;;;;;;5045680;28;20033;-74
2022/05/17 11:32:17;;;;;;;5.40;1.55;;;;;;;;;;5047912;28;20116;-73
2022/05/17 11:34:44;;;;;;;5.95;1.25;;;;;;;;;;5033452;28;20087;-73
2022/05/17 11:37:30;;;;;;;7.18;0.98;;;;;;;;;;5047865;28;20025;-73
2022/05/17 11:39:56;;;;;;;5.00;1.40;;;;;;;;;;5049811;28;20082;-73
2022/05/17 11:42:30;;;;;;;4.82;1.50;;;;;;;;;;5039044;28;20481;-73
2022/05/17 11:44:57;;;;;;;4.93;1.40;;;;;;;;;;5033457;28;20484;-74
2022/05/17 11:47:26;;;;;;;9.40;1.88;;;;;;;;;;5035914;28;20037;-73
2022/05/17 11:49:52;;;;;;;5.22;1.42;;;;;;;;;;5032149;28;20030;-73
2022/05/17 11:52:24;;;;;;;4.88;1.30;;;;;;;;;;5040966;28;20029;-73
2022/05/17 11:54:52;;;;;;;5.38;1.40;;;;;;;;;;5052008;28;20059;-73
2022/05/17 11:57:18;;;;;;;3.95;1.30;;;;;;;;;;5045262;28;20036;-73
2022/05/17 11:59:46;;;;;;;12.77;1.70;;;;;;;;;;5045636;28;20041;-73
2022/05/17 12:02:13;;;;;;;4.13;1.30;;;;;;;;;;5044775;28;20029;-73
2022/05/17 12:04:42;;;;;;;6.95;1.10;;;;;;;;;;5041702;28;20045;-73
2022/05/17 12:07:30;;;;;;;7.32;1.33;;;;;;;;;;5032554;28;20024;-73
2022/05/17 12:09:57;;;;;;;4.65;1.30;;;;;;;;;;5042849;28;20041;-73
2022/05/17 12:12:27;;;;;;;6.78;1.30;;;;;;;;;;5045810;28;20043;-73
2022/05/17 12:15:12;;;;;;;7.10;1.70;;;;;;;;;;5036687;28;20036;-73
2022/05/17 12:17:47;;;;;;;6.47;1.60;;;;;;;;;;5043598;28;20102;-73
2022/05/17 12:20:22;;;;;;;5.38;1.55;;;;;;;;;;5052699;28;20033;-74
2022/05/17 12:22:54;;;;;;;4.80;1.25;;;;;;;;;;5039199;28;20053;-73
2022/05/17 12:25:23;;;;;;;5.65;1.45;;;;;;;;;;5052209;28;20051;-73
2022/05/17 12:27:50;;;;;;;5.65;1.67;;;;;;;;;;5046670;28;20030;-73
2022/05/17 12:33:11;;;;;;;6.68;1.15;;;;;;;;;;5052510;28;20451;-73
2022/05/17 12:35:37;;;;;;;5.43;1.40;;;;;;;;;;5047325;28;20033;-73
2022/05/17 12:43:02;;;;;;;4.10;1.20;;;;;;;;;;5035214;28;20113;-73
2022/05/17 12:43:35;;;;;;;6.55;1.67;;;;;;;;;;5052660;28;20174;-73
2022/05/17 12:46:14;;;;;;;6.50;1.42;;;;;;;;;;5023820;28;20112;-73
2022/05/17 12:48:40;;;;;;;5.93;1.60;;;;;;;;;;5045034;28;20436;-74
2022/05/17 12:51:10;;;;;;;6.00;1.50;;;;;;;;;;5044589;28;20027;-74
2022/05/17 12:53:39;;;;;;;7.70;1.70;;;;;;;;;;5043163;28;20033;-74
2022/05/17 12:56:08;;;;;;;6.90;1.38;;;;;;;;;;5038175;28;20078;-73
2022/05/17 12:58:35;;;;;;;8.23;1.80;;;;;;;;;;5048162;28;20085;-73
2022/05/17 13:01:03;;;;;;;6.18;1.92;;;;;;;;;;5049050;28;20036;-74
2022/05/17 13:03:30;;;;;;;5.15;1.40;;;;;;;;;;5043342;28;20029;-73
2022/05/17 13:06:01;;;;;;;5.10;1.30;;;;;;;;;;5044509;28;20470;-74
2022/05/17 13:08:32;;;;;;;10.25;1.80;;;;;;;;;;5028070;28;20049;-74
2022/05/17 13:10:58;;;;;;;;;;;;;;;;;;5044935;28;20469;-74
2022/05/17 13:13:26;;;;;;;9.30;2.58;;;;;;;;;;5046597;28;20007;-74
2022/05/17 13:15:54;;;;;;;5.15;1.38;;;;;;;;;;5046810;28;20029;-74
2022/05/17 13:18:21;;;;;;;8.32;1.90;;;;;;;;;;5042517;28;20172;-74
2022/05/17 13:20:48;;;;;;;9.23;1.88;;;;;;;;;;5031314;28;20090;-75
2022/05/17 13:23:16;;;;;;;9.88;1.38;;;;;;;;;;5048105;28;20033;-74
2022/05/17 13:25:44;;;;;;;5.55;1.38;;;;;;;;;;5047391;28;20037;-74
2022/05/17 13:28:10;;;;;;;11.05;2.42;;;;;;;;;;5045998;28;20044;-74
2022/05/17 13:30:49;;;;;;;7.15;2.00;;;;;;;;;;5042494;28;20037;-75
2022/05/17 13:33:29;;;;;;;18.45;3.25;;;;;;;;;;5041179;28;20021;-71
2022/05/17 13:36:05;;;;;;;20.20;5.00;;;;;;;;;;5038177;28;20037;-72
2022/05/17 13:38:33;;;;;;;10.80;2.53;;;;;;;;;;5037580;28;20024;-74
2022/05/17 13:41:01;;;;;;;9.43;2.20;;;;;;;;;;5048085;28;20135;-75
2022/05/17 13:43:33;;;;;;;9.70;2.00;;;;;;;;;;5045138;28;20476;-73
2022/05/17 13:46:18;;;;;;;25.70;2.33;;;;;;;;;;5032697;28;20043;-74
2022/05/17 13:48:52;;;;;;;8.70;1.63;;;;;;;;;;5047521;28;20392;-75
2022/05/17 13:51:30;;;;;;;7.68;1.52;;;;;;;;;;5050821;28;20029;-74
2022/05/17 13:54:10;;;;;;;17.85;2.53;;;;;;;;;;5051183;28;20028;-75
2022/05/17 13:56:39;;;;;;;9.75;1.55;;;;;;;;;;5048767;28;20045;-74
2022/05/17 13:59:05;;;;;;;4.55;1.38;;;;;;;;;;5049676;28;20119;-73
2022/05/17 14:01:33;;;;;;;7.65;1.65;;;;;;;;;;5024558;28;20029;-73
2022/05/17 14:04:18;;;;;;;8.82;1.30;;;;;;;;;;5046734;28;20465;-73
2022/05/17 14:06:49;;;;;;;5.78;1.08;;;;;;;;;;5050162;28;20056;-73
2022/05/17 14:12:07;;;;;;;3.67;0.90;;;;;;;;;;5045043;28;20456;-79
2022/05/17 14:14:33;;;;;;;5.72;1.15;;;;;;;;;;5041299;28;20074;-77
2022/05/17 14:17:02;;;;;;;8.05;1.50;;;;;;;;;;5037481;28;20032;-77
2022/05/17 14:19:29;;;;;;;5.20;1.17;;;;;;;;;;5023513;28;20045;-77
2022/05/17 14:21:57;;;;;;;4.45;1.08;;;;;;;;;;5037631;28;20056;-78
2022/05/17 14:24:23;;;;;;;6.22;2.13;;;;;;;;;;5036886;28;20028;-77
2022/05/17 14:26:50;;;;;;;6.57;1.50;;;;;;;;;;5011848;28;20053;-74
2022/05/17 14:29:17;;;;;;;9.73;1.75;;;;;;;;;;5018789;28;20038;-77
2022/05/17 14:31:44;;;;;;;3.53;1.27;;;;;;;;;;5026772;28;20119;-76
2022/05/17 14:34:13;;;;;;;5.50;1.88;;;;;;;;;;5021072;28;20109;-74
2022/05/17 14:36:39;;;;;;;6.20;1.30;;;;;;;;;;5021012;28;20029;-72
2022/05/17 14:39:06;;;;;;;4.00;1.10;;;;;;;;;;5030130;28;20037;-76
2022/05/17 14:41:32;;;;;;;7.00;1.80;;;;;;;;;;5028069;28;20033;-75
2022/05/17 14:43:59;;;;;;;3.25;1.10;;;;;;;;;;5022931;28;20046;-73
2022/05/17 14:46:25;;;;;;;5.78;1.42;;;;;;;;;;5029370;28;20039;-74
2022/05/17 14:48:52;;;;;;;6.03;1.40;;;;;;;;;;5027291;28;20378;-75
2022/05/17 14:51:20;;;;;;;4.93;1.15;;;;;;;;;;5020579;28;20535;-76
2022/05/17 14:53:46;;;;;;;4.00;1.20;;;;;;;;;;5029010;28;20163;-78
2022/05/17 14:56:12;;;;;;;7.68;1.27;;;;;;;;;;5023139;28;20044;-72
2022/05/17 14:58:38;;;;;;;5.88;1.77;;;;;;;;;;5027138;28;20033;-74